createdAt,value
2018-07-27T00:01:19.704Z,73.73
2018-07-27T00:03:46.879Z,73.92
2018-07-27T00:06:14.070Z,72.73
2018-07-27T00:08:41.220Z,72.74
2018-07-27T00:11:08.400Z,72.75
2018-07-27T00:13:35.672Z,73.31
2018-07-27T00:16:02.852Z,73.24
2018-07-27T00:18:29.987Z,74.42
2018-07-27T00:20:57.178Z,73.22
2018-07-27T00:23:24.291Z,73.03
2018-07-27T00:25:51.409Z,73.75
2018-07-27T00:28:18.566Z,73.96
2018-07-27T00:30:45.701Z,74.67
2018-07-27T00:33:12.859Z,74.78
2018-07-27T00:35:40.144Z,74.39
2018-07-27T00:38:07.322Z,75.57
2018-07-27T00:40:34.480Z,73.88
2018-07-27T00:43:01.638Z,75.35
2018-07-27T00:45:28.747Z,74.38
2018-07-27T00:47:55.878Z,74.49
2018-07-27T00:50:23.036Z,75.39
2018-07-27T00:52:50.199Z,76.47
2018-07-27T00:55:17.328Z,75.40
2018-07-27T00:57:44.581Z,75.92
2018-07-27T01:00:11.718Z,76.40
2018-07-27T01:02:38.821Z,75.60
2018-07-27T01:05:05.997Z,76.59
2018-07-27T01:07:33.180Z,76.48
2018-07-27T01:10:00.342Z,76.15
2018-07-27T01:12:27.626Z,75.17
2018-07-27T01:14:54.808Z,76.74
2018-07-27T01:17:21.946Z,76.62
2018-07-27T01:19:49.250Z,77.71
2018-07-27T01:22:16.363Z,74.68
2018-07-27T01:24:43.550Z,77.02
2018-07-27T01:27:10.805Z,77.29
2018-07-27T01:29:37.932Z,78.09
2018-07-27T01:32:05.092Z,77.68
2018-07-27T01:34:32.265Z,78.00
2018-07-27T01:36:59.401Z,78.37
2018-07-27T01:39:26.536Z,78.72
2018-07-27T01:41:53.718Z,78.53
2018-07-27T01:44:20.897Z,78.93
2018-07-27T01:46:48.009Z,80.18
2018-07-27T01:49:15.264Z,79.42
2018-07-27T01:51:42.397Z,79.60
2018-07-27T01:54:09.524Z,81.02
2018-07-27T01:56:36.813Z,79.11
2018-07-27T01:59:04.012Z,79.36
2018-07-27T02:01:31.715Z,80.76
2018-07-27T02:03:58.889Z,81.41
2018-07-27T02:06:26.004Z,80.18
2018-07-27T02:08:53.148Z,80.37
2018-07-27T02:11:20.336Z,80.69
2018-07-27T02:13:47.509Z,81.44
2018-07-27T02:16:14.689Z,81.93
2018-07-27T02:18:41.977Z,82.15
2018-07-27T02:21:09.097Z,82.31
2018-07-27T02:23:36.285Z,83.27
2018-07-27T02:26:03.537Z,82.72
2018-07-27T02:28:30.660Z,82.52
2018-07-27T02:30:57.820Z,83.36
2018-07-27T02:33:25.034Z,83.30
2018-07-27T02:35:52.860Z,83.52
2018-07-27T02:38:19.993Z,83.67
2018-07-27T02:40:47.157Z,84.68
2018-07-27T02:43:14.266Z,84.90
2018-07-27T02:45:41.401Z,85.71
2018-07-27T02:48:08.580Z,86.12
2018-07-27T02:50:35.709Z,85.44
2018-07-27T02:53:03.301Z,86.85
2018-07-27T02:55:30.460Z,87.62
2018-07-27T02:57:57.650Z,87.96
2018-07-27T03:00:24.757Z,87.81
2018-07-27T03:02:52.004Z,87.92
2018-07-27T03:05:19.173Z,88.53
2018-07-27T03:07:46.276Z,87.99
2018-07-27T03:10:13.472Z,89.03
2018-07-27T03:12:40.642Z,89.30
2018-07-27T03:15:08.004Z,89.55
2018-07-27T03:17:35.337Z,89.42
2018-07-27T03:20:02.516Z,89.51
2018-07-27T03:22:29.662Z,89.20
2018-07-27T03:24:57.470Z,90.12
2018-07-27T03:27:24.603Z,89.82
2018-07-27T03:29:51.752Z,90.28
2018-07-27T03:32:18.991Z,89.60
2018-07-27T03:34:46.118Z,90.23
2018-07-27T03:37:13.328Z,90.42
2018-07-27T03:39:40.588Z,91.12
2018-07-27T03:42:07.752Z,91.44
2018-07-27T03:44:34.887Z,90.90
2018-07-27T03:47:02.113Z,90.79
2018-07-27T03:49:29.277Z,90.67
2018-07-27T03:51:56.411Z,90.18
2018-07-27T03:54:23.718Z,89.62
2018-07-27T03:56:50.894Z,89.98
2018-07-27T03:59:18.029Z,90.67
2018-07-27T04:01:45.251Z,90.68
2018-07-27T04:04:12.400Z,91.60
2018-07-27T04:06:39.525Z,91.71
2018-07-27T04:09:07.648Z,91.50
2018-07-27T04:11:34.846Z,91.71
2018-07-27T04:14:02.069Z,92.08
2018-07-27T04:16:29.402Z,91.96
2018-07-27T04:18:56.553Z,91.55
2018-07-27T04:21:23.826Z,91.84
2018-07-27T04:23:51.008Z,92.47
2018-07-27T04:26:18.139Z,91.95
2018-07-27T04:28:45.261Z,91.90
2018-07-27T04:31:12.429Z,92.39
2018-07-27T04:33:39.565Z,92.07
2018-07-27T04:36:06.757Z,91.77
2018-07-27T04:38:34.018Z,92.14
2018-07-27T04:41:01.147Z,92.58
2018-07-27T04:43:28.309Z,91.66
2018-07-27T04:45:55.572Z,90.88
2018-07-27T04:48:22.696Z,91.21
2018-07-27T04:50:49.808Z,91.10
2018-07-27T04:53:17.055Z,91.10
2018-07-27T04:55:44.209Z,90.32
2018-07-27T04:58:11.406Z,89.68
2018-07-27T05:00:38.621Z,89.43
2018-07-27T05:03:05.741Z,90.47
2018-07-27T05:05:32.840Z,89.84
2018-07-27T05:08:00.105Z,90.30
2018-07-27T05:10:32.902Z,89.02
2018-07-27T05:13:00.197Z,88.56
2018-07-27T05:15:27.336Z,88.41
2018-07-27T05:17:54.467Z,88.35
2018-07-27T05:20:21.721Z,87.74
2018-07-27T05:22:48.873Z,88.52
2018-07-27T05:25:16.089Z,85.83
2018-07-27T05:27:43.275Z,84.43
2018-07-27T05:30:10.398Z,84.99
2018-07-27T05:32:37.520Z,84.72
2018-07-27T05:35:04.972Z,83.10
2018-07-27T05:37:32.151Z,83.42
2018-07-27T05:39:59.311Z,83.35
2018-07-27T05:42:26.528Z,81.49
2018-07-27T05:44:53.652Z,82.72
2018-07-27T05:47:20.769Z,80.70
2018-07-27T05:49:48.864Z,80.39
2018-07-27T05:52:16.056Z,78.85
2018-07-27T05:54:43.252Z,79.48
2018-07-27T05:57:10.456Z,79.08
2018-07-27T05:59:37.593Z,76.86
2018-07-27T06:02:04.737Z,76.14
2018-07-27T06:04:31.919Z,77.33
2018-07-27T06:06:59.090Z,76.84
2018-07-27T06:09:26.259Z,75.06
2018-07-27T06:11:53.482Z,75.01
2018-07-27T06:14:20.651Z,74.88
2018-07-27T06:16:47.770Z,73.99
2018-07-27T06:19:14.984Z,73.68
2018-07-27T06:21:42.267Z,72.53
2018-07-27T06:24:09.505Z,72.56
2018-07-27T06:26:36.685Z,72.47
2018-07-27T06:29:03.830Z,73.42
2018-07-27T06:31:30.988Z,71.96
2018-07-27T06:33:58.183Z,71.29
2018-07-27T06:36:25.364Z,69.44
2018-07-27T06:38:52.559Z,69.83
2018-07-27T06:41:19.804Z,68.75
2018-07-27T06:43:46.969Z,69.94
2018-07-27T06:46:14.139Z,69.25
2018-07-27T06:48:41.284Z,68.71
2018-07-27T06:51:08.440Z,70.15
2018-07-27T06:53:35.631Z,66.98
2018-07-27T06:56:02.812Z,65.54
2018-07-27T06:58:30.013Z,66.98
2018-07-27T07:00:57.143Z,66.37
2018-07-27T07:03:24.323Z,65.75
2018-07-27T07:05:51.471Z,66.15
2018-07-27T07:08:18.604Z,66.45
2018-07-27T07:10:46.069Z,63.93
2018-07-27T07:13:13.220Z,63.67
2018-07-27T07:15:40.373Z,63.83
2018-07-27T07:18:07.598Z,63.92
2018-07-27T07:20:34.733Z,62.60
2018-07-27T07:23:01.947Z,63.33
2018-07-27T07:25:29.369Z,63.24
2018-07-27T07:27:56.344Z,61.83
2018-07-27T07:30:23.467Z,60.78
2018-07-27T07:32:50.636Z,60.70
2018-07-27T07:35:17.855Z,59.56
2018-07-27T07:37:45.064Z,61.55
2018-07-27T07:40:12.338Z,59.89
2018-07-27T07:42:39.681Z,58.47
2018-07-27T07:45:07.046Z,58.01
2018-07-27T07:47:34.347Z,58.12
2018-07-27T07:50:01.473Z,57.77
2018-07-27T07:52:28.584Z,56.73
2018-07-27T07:54:55.763Z,57.24
2018-07-27T07:57:22.923Z,58.42
2018-07-27T07:59:50.250Z,57.34
2018-07-27T08:02:17.425Z,56.60
2018-07-27T08:04:44.551Z,56.59
2018-07-27T08:07:11.655Z,57.81
2018-07-27T08:09:39.277Z,55.44
2018-07-27T08:12:06.553Z,57.06
2018-07-27T08:14:33.679Z,54.49
2018-07-27T08:17:00.892Z,55.05
2018-07-27T08:19:28.042Z,54.43
2018-07-27T08:21:55.262Z,55.22
2018-07-27T08:24:22.628Z,54.15
2018-07-27T08:26:57.843Z,55.14
2018-07-27T08:29:27.400Z,55.48
2018-07-27T08:31:55.105Z,50.75
2018-07-27T08:34:22.632Z,52.31
2018-07-27T08:36:50.414Z,50.37
2018-07-27T08:39:18.852Z,50.26
2018-07-27T08:41:46.617Z,49.46
2018-07-27T08:44:15.515Z,49.79
2018-07-27T08:46:42.780Z,50.37
2018-07-27T08:49:10.360Z,49.50
2018-07-27T08:51:37.592Z,51.29
2018-07-27T08:54:04.781Z,51.31
2018-07-27T08:56:31.976Z,48.98
2018-07-27T08:58:59.285Z,49.53
2018-07-27T09:01:26.482Z,46.39
2018-07-27T09:03:53.723Z,44.96
2018-07-27T09:06:20.909Z,45.60
2018-07-27T09:08:48.901Z,46.35
2018-07-27T09:11:16.213Z,46.96
2018-07-27T09:13:43.398Z,45.99
2018-07-27T09:16:10.526Z,47.28
2018-07-27T09:18:37.805Z,44.89
2018-07-27T09:21:05.075Z,45.56
2018-07-27T09:23:32.406Z,46.57
2018-07-27T09:25:59.564Z,47.60
2018-07-27T09:28:27.391Z,49.58
2018-07-27T09:30:55.383Z,48.74
2018-07-27T09:33:22.585Z,50.30
2018-07-27T09:35:50.041Z,49.78
2018-07-27T09:38:17.163Z,53.60
2018-07-27T09:40:44.364Z,47.80
2018-07-27T09:43:11.580Z,49.91
2018-07-27T09:45:38.687Z,48.17
2018-07-27T09:48:05.996Z,44.95
2018-07-27T09:50:33.201Z,44.06
2018-07-27T09:53:00.423Z,43.77
2018-07-27T09:55:27.588Z,47.19
2018-07-27T09:57:54.801Z,44.82
2018-07-27T10:00:28.589Z,43.44
2018-07-27T10:02:55.816Z,44.25
2018-07-27T10:05:22.953Z,41.54
2018-07-27T10:07:50.095Z,42.97
2018-07-27T10:10:17.406Z,42.11
2018-07-27T10:12:44.770Z,41.46
2018-07-27T10:15:11.874Z,41.54
2018-07-27T10:17:39.033Z,41.47
2018-07-27T10:20:06.213Z,42.19
2018-07-27T10:22:33.383Z,43.99
2018-07-27T10:25:00.717Z,39.31
2018-07-27T10:27:27.868Z,40.89
2018-07-27T10:29:55.024Z,38.79
2018-07-27T10:32:22.289Z,40.64
2018-07-27T10:34:49.464Z,41.51
2018-07-27T10:37:16.772Z,41.72
2018-07-27T10:39:43.952Z,38.82
2018-07-27T10:42:11.095Z,39.95
2018-07-27T10:44:38.288Z,43.58
2018-07-27T10:47:05.664Z,40.60
2018-07-27T10:49:33.159Z,37.90
2018-07-27T10:52:00.331Z,37.98
2018-07-27T10:54:27.901Z,37.57
2018-07-27T10:56:55.027Z,41.11
2018-07-27T10:59:22.156Z,38.58
2018-07-27T11:01:49.448Z,37.49
2018-07-27T11:04:16.572Z,34.37
2018-07-27T11:06:43.690Z,40.54
2018-07-27T11:09:11.015Z,33.33
2018-07-27T11:11:38.176Z,32.48
2018-07-27T11:14:05.531Z,33.03
2018-07-27T11:16:32.769Z,31.78
2018-07-27T11:18:59.907Z,35.75
2018-07-27T11:21:27.075Z,31.21
2018-07-27T11:23:54.655Z,32.27
2018-07-27T11:26:21.924Z,37.38
2018-07-27T11:28:49.036Z,32.66
2018-07-27T11:31:16.229Z,30.08
2018-07-27T11:33:43.372Z,31.78
2018-07-27T11:36:10.533Z,29.79
2018-07-27T11:38:37.828Z,30.02
2018-07-27T11:41:05.033Z,28.95
2018-07-27T11:43:32.177Z,30.49
2018-07-27T11:45:59.409Z,27.42
2018-07-27T11:48:26.515Z,29.28
2018-07-27T11:50:53.792Z,28.67
2018-07-27T11:53:21.319Z,27.88
2018-07-27T11:55:48.443Z,26.97
2018-07-27T11:58:15.568Z,27.29
2018-07-27T12:00:42.806Z,25.59
2018-07-27T12:03:10.156Z,23.28
2018-07-27T12:05:37.340Z,24.66
2018-07-27T12:08:04.529Z,25.24
2018-07-27T12:10:31.671Z,25.37
2018-07-27T12:12:58.868Z,24.57
2018-07-27T12:15:26.188Z,24.79
2018-07-27T12:17:53.344Z,25.80
2018-07-27T12:20:20.487Z,29.41
2018-07-27T12:22:47.747Z,28.58
2018-07-27T12:25:14.868Z,30.32
2018-07-27T12:27:42.202Z,30.27
2018-07-27T12:30:09.751Z,33.91
2018-07-27T12:32:36.911Z,33.43
2018-07-27T12:35:04.036Z,34.01
2018-07-27T12:37:31.232Z,32.23
2018-07-27T12:39:58.586Z,34.88
2018-07-27T12:42:25.708Z,35.44
2018-07-27T12:44:52.912Z,34.13
2018-07-27T12:47:20.057Z,34.83
2018-07-27T12:49:47.223Z,36.07
2018-07-27T12:52:14.540Z,37.04
2018-07-27T12:54:41.637Z,36.48
2018-07-27T12:57:08.783Z,36.15
2018-07-27T12:59:36.170Z,36.21
2018-07-27T13:02:03.373Z,35.25
2018-07-27T13:04:30.662Z,35.33
2018-07-27T13:06:57.836Z,34.13
2018-07-27T13:09:24.996Z,36.73
2018-07-27T13:11:52.188Z,38.97
2018-07-27T13:14:19.410Z,38.84
2018-07-27T13:16:46.714Z,40.30
2018-07-27T13:19:14.745Z,39.73
2018-07-27T13:21:41.959Z,38.97
2018-07-27T13:24:09.086Z,38.60
2018-07-27T13:26:36.257Z,39.29
2018-07-27T13:29:03.583Z,35.88
2018-07-27T13:31:45.215Z,36.28
2018-07-27T13:37:15.268Z,36.04
2018-07-27T13:39:44.191Z,37.47
2018-07-27T13:42:12.027Z,38.16
2018-07-27T13:44:39.419Z,39.19
2018-07-27T13:47:07.283Z,39.16
2018-07-27T13:49:34.485Z,38.00
2018-07-27T13:52:02.716Z,38.96
2018-07-27T13:54:31.048Z,37.55
2018-07-27T13:56:58.631Z,40.27
2018-07-27T13:59:25.779Z,37.63
2018-07-27T14:01:52.957Z,36.69
2018-07-27T14:04:20.288Z,36.10
2018-07-27T14:06:48.991Z,34.08
2018-07-27T14:09:16.232Z,34.16
2018-07-27T14:11:43.411Z,35.11
2018-07-27T14:14:10.891Z,35.42
2018-07-27T14:16:38.561Z,34.22
2018-07-27T14:19:05.734Z,34.05
2018-07-27T14:21:32.896Z,34.64
2018-07-27T14:24:00.189Z,34.84
2018-07-27T14:26:27.361Z,38.44
2018-07-27T14:28:55.511Z,35.21
2018-07-27T14:31:22.841Z,36.35
2018-07-27T14:33:50.613Z,34.71
2018-07-27T14:36:17.791Z,34.69
2018-07-27T14:38:44.937Z,35.02
2018-07-27T14:41:12.247Z,34.87
2018-07-27T14:43:39.431Z,35.49
2018-07-27T14:46:07.038Z,35.44
2018-07-27T14:48:34.285Z,34.77
2018-07-27T14:51:01.785Z,35.17
2018-07-27T14:53:29.063Z,34.39
2018-07-27T14:55:56.252Z,37.28
2018-07-27T14:58:23.403Z,35.44
2018-07-27T15:00:50.588Z,35.10
2018-07-27T15:03:17.878Z,35.74
2018-07-27T15:05:45.205Z,37.55
2018-07-27T15:08:12.457Z,38.09
2018-07-27T15:10:39.643Z,39.58
2018-07-27T15:13:06.797Z,37.75
2018-07-27T15:15:33.945Z,37.23
2018-07-27T15:18:01.282Z,38.13
2018-07-27T15:20:28.407Z,32.30
2018-07-27T15:22:55.810Z,32.38
2018-07-27T15:25:23.089Z,32.64
2018-07-27T15:27:50.207Z,33.65
2018-07-27T15:30:18.204Z,34.51
2018-07-27T15:32:45.470Z,35.05
2018-07-27T15:35:12.623Z,35.17
2018-07-27T15:37:39.807Z,35.42
2018-07-27T15:40:07.075Z,35.42
2018-07-27T15:42:34.380Z,34.44
2018-07-27T15:45:01.545Z,31.79
2018-07-27T15:47:29.071Z,31.80
2018-07-27T15:49:56.174Z,29.14
2018-07-27T15:52:23.313Z,29.12
2018-07-27T15:54:50.758Z,25.20
2018-07-27T15:57:17.929Z,25.01
2018-07-27T15:59:45.136Z,23.06
2018-07-27T16:02:12.436Z,22.16
2018-07-27T16:04:39.680Z,22.54
2018-07-27T16:07:06.943Z,23.58
2018-07-27T16:09:34.122Z,21.91
2018-07-27T16:12:01.327Z,24.81
2018-07-27T16:14:28.497Z,27.04
2018-07-27T16:16:56.150Z,27.43
2018-07-27T16:19:24.460Z,26.89
2018-07-27T16:21:51.658Z,31.25
2018-07-27T16:24:18.821Z,30.66
2018-07-27T16:26:45.952Z,33.67
2018-07-27T16:29:13.070Z,32.57
2018-07-27T16:31:40.455Z,34.08
2018-07-27T16:34:07.592Z,35.68
2018-07-27T16:36:34.820Z,36.99
2018-07-27T16:39:02.067Z,38.23
2018-07-27T16:41:29.267Z,37.76
2018-07-27T16:43:56.557Z,38.92
2018-07-27T16:46:23.761Z,39.11
2018-07-27T16:48:50.913Z,40.19
2018-07-27T16:51:18.109Z,40.35
2018-07-27T16:53:45.303Z,40.88
2018-07-27T16:56:12.589Z,41.72
2018-07-27T16:58:39.771Z,41.07
2018-07-27T17:01:06.952Z,42.38
2018-07-27T17:03:34.084Z,40.69
2018-07-27T17:06:01.237Z,40.85
2018-07-27T17:08:28.589Z,41.67
2018-07-27T17:10:55.702Z,43.75
2018-07-27T17:13:22.846Z,41.55
2018-07-27T17:15:50.064Z,42.22
2018-07-27T17:18:17.254Z,42.31
2018-07-27T17:20:44.651Z,42.53
2018-07-27T17:23:12.427Z,43.39
2018-07-27T17:25:39.670Z,43.08
2018-07-27T17:28:06.824Z,44.56
2018-07-27T17:30:34.037Z,44.62
2018-07-27T17:33:01.324Z,44.00
2018-07-27T17:35:28.483Z,43.94
2018-07-27T17:37:55.657Z,44.38
2018-07-27T17:40:22.898Z,43.61
2018-07-27T17:42:50.048Z,45.48
2018-07-27T17:45:17.739Z,45.75
2018-07-27T17:47:44.901Z,46.89
2018-07-27T17:50:12.109Z,47.19
2018-07-27T17:52:39.316Z,47.34
2018-07-27T17:55:07.410Z,47.45
2018-07-27T17:57:34.949Z,47.57
2018-07-27T18:00:02.341Z,47.78
2018-07-27T18:02:29.556Z,49.24
2018-07-27T18:04:56.694Z,49.86
2018-07-27T18:07:24.083Z,49.94
2018-07-27T18:09:51.224Z,50.83
2018-07-27T18:12:18.319Z,51.49
2018-07-27T18:14:46.143Z,52.21
2018-07-27T18:17:13.716Z,52.99
2018-07-27T18:19:41.180Z,52.94
2018-07-27T18:22:08.711Z,52.72
2018-07-27T18:24:35.943Z,54.21
2018-07-27T18:27:03.178Z,54.67
2018-07-27T18:29:30.494Z,55.68
2018-07-27T18:31:57.749Z,55.59
2018-07-27T18:34:24.967Z,56.17
2018-07-27T18:36:52.259Z,56.87
2018-07-27T18:39:19.399Z,56.60
2018-07-27T18:41:46.597Z,56.77
2018-07-27T18:44:15.270Z,57.57
2018-07-27T18:46:42.449Z,58.10
2018-07-27T18:49:10.029Z,58.56
2018-07-27T18:51:37.208Z,58.09
2018-07-27T18:54:04.853Z,58.53
2018-07-27T18:56:32.140Z,58.51
2018-07-27T18:58:59.362Z,58.89
2018-07-27T19:01:26.592Z,59.86
2018-07-27T19:03:53.788Z,60.58
2018-07-27T19:06:22.108Z,62.22
2018-07-27T19:08:49.657Z,62.80
2018-07-27T19:11:17.005Z,63.29
2018-07-27T19:13:44.831Z,65.13
2018-07-27T19:16:11.991Z,65.77
2018-07-27T19:18:39.600Z,65.61
2018-07-27T19:21:06.907Z,65.95
2018-07-27T19:23:34.136Z,66.04
2018-07-27T19:26:01.471Z,66.49
2018-07-27T19:28:28.644Z,67.58
2018-07-27T19:30:57.105Z,67.66
2018-07-27T19:33:24.426Z,68.66
2018-07-27T19:35:51.755Z,69.93
2018-07-27T19:38:19.029Z,70.06
2018-07-27T19:40:46.289Z,69.87
2018-07-27T19:43:13.514Z,68.32
2018-07-27T19:45:40.651Z,68.41
2018-07-27T19:48:08.335Z,68.00
2018-07-27T19:50:35.651Z,67.56
2018-07-27T19:53:02.771Z,68.08
2018-07-27T19:55:30.966Z,68.50
2018-07-27T19:57:58.164Z,70.89
2018-07-27T20:00:25.322Z,70.83
2018-07-27T20:02:52.511Z,71.39
2018-07-27T20:05:19.755Z,70.92
2018-07-27T20:07:47.252Z,71.37
2018-07-27T20:10:14.547Z,72.09
2018-07-27T20:12:41.760Z,72.99
2018-07-27T20:15:09.104Z,73.62
2018-07-27T20:17:36.312Z,73.67
2018-07-27T20:20:06.077Z,73.75
2018-07-27T20:22:33.467Z,72.16
2018-07-27T20:25:00.738Z,72.02
2018-07-27T20:27:28.231Z,71.96
2018-07-27T20:29:55.460Z,71.57
2018-07-27T20:32:22.691Z,71.01
2018-07-27T20:34:49.866Z,71.10
2018-07-27T20:37:17.080Z,71.10
2018-07-27T20:39:44.321Z,70.93
2018-07-27T20:42:11.485Z,71.76
2018-07-27T20:44:38.738Z,71.46
2018-07-27T20:47:06.660Z,71.32
2018-07-27T20:49:34.338Z,71.36
2018-07-27T20:52:01.684Z,71.90
2018-07-27T20:54:29.688Z,71.88
2018-07-27T20:56:57.368Z,71.47
2018-07-27T20:59:26.713Z,70.70
2018-07-27T21:02:00.975Z,70.49
2018-07-27T21:04:32.250Z,71.26
2018-07-27T21:06:59.966Z,71.08
2018-07-27T21:09:27.445Z,71.40
2018-07-27T21:11:54.725Z,71.17
2018-07-27T21:14:26.672Z,72.44
2018-07-27T21:16:59.116Z,72.21
2018-07-27T21:19:27.898Z,72.39
2018-07-27T21:21:58.488Z,73.13
2018-07-27T21:24:29.054Z,73.33
2018-07-27T21:26:56.279Z,74.00
2018-07-27T21:29:24.259Z,74.49
2018-07-27T21:31:51.729Z,74.99
2018-07-27T21:34:21.369Z,75.36
2018-07-27T21:36:48.694Z,75.82
2018-07-27T21:39:15.951Z,75.27
2018-07-27T21:41:43.047Z,76.16
2018-07-27T21:44:10.127Z,76.76
2018-07-27T21:46:38.695Z,77.03
2018-07-27T21:49:05.788Z,77.62
2018-07-27T21:51:34.014Z,77.52
2018-07-27T21:54:01.144Z,78.51
2018-07-27T21:56:28.303Z,78.34
2018-07-27T21:58:55.500Z,77.93
2018-07-27T22:01:22.862Z,77.68
2018-07-27T22:03:50.171Z,78.25
2018-07-27T22:06:17.895Z,78.80
2018-07-27T22:08:45.133Z,79.08
2018-07-27T22:11:12.228Z,79.57
2018-07-27T22:13:40.932Z,79.85
2018-07-27T22:16:09.110Z,79.82
2018-07-27T22:18:36.397Z,80.30
2018-07-27T22:21:03.522Z,81.01
2018-07-27T22:23:30.683Z,81.15
2018-07-27T22:25:57.795Z,80.95
2018-07-27T22:28:25.390Z,81.63
2018-07-27T22:30:52.674Z,81.39
2018-07-27T22:33:19.879Z,80.42
2018-07-27T22:35:47.178Z,80.79
2018-07-27T22:38:14.329Z,81.16
2018-07-27T22:40:41.849Z,81.93
2018-07-27T22:43:09.391Z,82.17
2018-07-27T22:45:36.785Z,82.43
2018-07-27T22:48:04.097Z,82.16
2018-07-27T22:50:31.212Z,82.56
2018-07-27T22:52:59.344Z,82.81
2018-07-27T22:55:26.516Z,82.44
2018-07-27T22:57:54.513Z,82.45
2018-07-27T23:00:21.753Z,83.08
2018-07-27T23:02:49.014Z,82.51
2018-07-27T23:05:16.248Z,82.95
2018-07-27T23:07:43.937Z,82.73
2018-07-27T23:10:11.068Z,82.81
2018-07-27T23:12:38.284Z,83.01
2018-07-27T23:15:08.748Z,83.03
2018-07-27T23:17:35.873Z,82.90
2018-07-27T23:20:04.694Z,83.99
2018-07-27T23:22:32.082Z,83.38
2018-07-27T23:24:59.167Z,83.89
2018-07-27T23:27:26.631Z,83.96
2018-07-27T23:29:53.845Z,84.20
2018-07-27T23:32:21.010Z,84.77
2018-07-27T23:34:49.266Z,84.06
2018-07-27T23:37:16.580Z,84.34
2018-07-27T23:39:44.882Z,84.60
2018-07-27T23:42:12.968Z,84.56
2018-07-27T23:44:40.119Z,84.87
2018-07-27T23:47:07.231Z,85.58
2018-07-27T23:49:35.341Z,85.01
2018-07-27T23:52:02.890Z,85.55
2018-07-27T23:54:29.979Z,85.15
2018-07-27T23:56:57.097Z,85.79
2018-07-27T23:59:24.263Z,85.74
